createdAt,value
2023-02-22T00:00:50.054Z,83.30
2023-02-22T00:03:25.032Z,83.45
2023-02-22T00:05:55.325Z,84.31
2023-02-22T00:08:30.404Z,83.84
2023-02-22T00:10:58.726Z,84.86
2023-02-22T00:13:29.603Z,84.80
2023-02-22T00:15:58.548Z,84.92
2023-02-22T00:18:28.029Z,83.94
2023-02-22T00:20:59.117Z,83.90
2023-02-22T00:23:29.684Z,84.22
2023-02-22T00:25:59.361Z,84.25
2023-02-22T00:28:30.695Z,84.38
2023-02-22T00:30:59.766Z,84.45
2023-02-22T00:33:27.688Z,83.94
2023-02-22T00:35:55.590Z,84.26
2023-02-22T00:38:23.579Z,84.11
2023-02-22T00:40:51.845Z,84.16
2023-02-22T00:43:19.683Z,84.03
2023-02-22T00:45:50.265Z,84.70
2023-02-22T00:48:19.570Z,84.06
2023-02-22T00:50:49.117Z,83.98
2023-02-22T00:53:17.575Z,84.26
2023-02-22T00:55:45.455Z,85.09
2023-02-22T00:58:13.613Z,85.06
2023-02-22T01:00:43.750Z,84.49
2023-02-22T01:03:15.740Z,84.45
2023-02-22T01:05:43.988Z,84.85
2023-02-22T01:08:14.607Z,83.87
2023-02-22T01:10:42.443Z,84.68
2023-02-22T01:13:12.573Z,83.73
2023-02-22T01:15:42.406Z,83.83
2023-02-22T01:18:11.690Z,83.84
2023-02-22T01:20:41.106Z,84.97
2023-02-22T01:23:10.610Z,85.03
2023-02-22T01:25:38.719Z,84.00
2023-02-22T01:28:08.151Z,85.38
2023-02-22T01:30:37.500Z,84.82
2023-02-22T01:33:08.027Z,85.10
2023-02-22T01:35:38.502Z,85.81
2023-02-22T01:38:09.596Z,85.88
2023-02-22T01:40:41.857Z,86.04
2023-02-22T01:43:18.333Z,86.49
2023-02-22T01:45:52.720Z,86.56
2023-02-22T01:48:26.084Z,86.04
2023-02-22T01:50:58.380Z,85.54
2023-02-22T01:53:32.816Z,85.95
2023-02-22T01:56:01.777Z,86.04
2023-02-22T01:58:34.150Z,85.00
2023-02-22T02:01:02.283Z,86.20
2023-02-22T02:03:34.396Z,85.69
2023-02-22T02:06:05.973Z,86.02
2023-02-22T02:08:42.382Z,85.93
2023-02-22T02:11:10.953Z,85.99
2023-02-22T02:13:39.477Z,85.94
2023-02-22T02:16:08.268Z,86.21
2023-02-22T02:18:36.621Z,85.23
2023-02-22T02:21:44.998Z,86.15
2023-02-22T02:24:40.242Z,86.06
2023-02-22T02:27:18.915Z,85.97
2023-02-22T02:30:31.588Z,85.60
2023-02-22T02:33:06.458Z,86.34
2023-02-22T02:35:46.319Z,86.31
2023-02-22T02:38:27.034Z,85.84
2023-02-22T02:41:05.462Z,86.22
2023-02-22T02:43:39.969Z,86.75
2023-02-22T02:46:13.360Z,87.08
2023-02-22T02:48:50.437Z,86.64
2023-02-22T02:51:20.816Z,85.81
2023-02-22T02:53:51.387Z,86.64
2023-02-22T02:56:19.468Z,86.28
2023-02-22T02:58:51.163Z,87.30
2023-02-22T03:01:29.210Z,86.57
2023-02-22T03:04:14.026Z,86.60
2023-02-22T03:07:08.744Z,86.91
2023-02-22T03:09:50.033Z,86.53
2023-02-22T03:12:29.089Z,86.95
2023-02-22T03:15:09.408Z,86.99
2023-02-22T03:17:48.721Z,86.17
2023-02-22T03:20:31.566Z,86.46
2023-02-22T03:23:09.719Z,85.98
2023-02-22T03:25:44.469Z,85.67
2023-02-22T03:28:18.610Z,86.77
2023-02-22T03:30:51.814Z,85.75
2023-02-22T03:33:28.733Z,86.52
2023-02-22T03:36:02.832Z,86.69
2023-02-22T03:38:34.786Z,86.44
2023-02-22T03:41:05.783Z,86.03
2023-02-22T03:43:39.333Z,86.06
2023-02-22T03:46:14.477Z,86.33
2023-02-22T03:48:49.794Z,85.98
2023-02-22T03:51:19.939Z,86.47
2023-02-22T03:53:52.501Z,85.99
2023-02-22T03:56:27.302Z,86.71
2023-02-22T03:58:56.289Z,86.82
2023-02-22T04:01:24.288Z,86.09
2023-02-22T04:03:53.146Z,86.57
2023-02-22T04:06:23.368Z,85.79
2023-02-22T04:08:51.434Z,86.67
2023-02-22T04:11:19.357Z,85.88
2023-02-22T04:13:47.437Z,85.51
2023-02-22T04:16:15.470Z,86.39
2023-02-22T04:18:43.427Z,85.59
2023-02-22T04:21:12.520Z,85.55
2023-02-22T04:23:45.880Z,86.90
2023-02-22T04:26:14.682Z,86.58
2023-02-22T04:28:44.319Z,87.08
2023-02-22T04:31:17.154Z,85.32
2023-02-22T04:33:45.670Z,86.44
2023-02-22T04:36:17.249Z,85.70
2023-02-22T04:38:47.705Z,86.04
2023-02-22T04:41:16.024Z,86.18
2023-02-22T04:43:44.132Z,85.69
2023-02-22T04:46:17.717Z,86.74
2023-02-22T04:48:46.098Z,86.04
2023-02-22T04:51:15.619Z,85.38
2023-02-22T04:53:56.412Z,86.08
2023-02-22T04:56:26.023Z,86.05
2023-02-22T04:58:53.874Z,85.58
2023-02-22T05:01:23.521Z,86.44
2023-02-22T05:03:51.450Z,86.13
2023-02-22T05:06:19.665Z,86.91
2023-02-22T05:08:48.032Z,87.21
2023-02-22T05:11:17.563Z,87.30
2023-02-22T05:13:45.742Z,87.25
2023-02-22T05:16:14.107Z,87.39
2023-02-22T05:18:42.159Z,87.33
2023-02-22T05:21:10.514Z,87.06
2023-02-22T05:23:38.373Z,87.98
2023-02-22T05:26:06.744Z,87.61
2023-02-22T05:28:35.954Z,87.89
2023-02-22T05:31:03.862Z,88.16
2023-02-22T05:33:31.723Z,87.96
2023-02-22T05:35:59.602Z,87.62
2023-02-22T05:38:27.467Z,87.91
2023-02-22T05:40:55.295Z,87.77
2023-02-22T05:43:23.219Z,88.09
2023-02-22T05:45:52.365Z,88.58
2023-02-22T05:48:22.533Z,87.61
2023-02-22T05:50:50.593Z,87.88
2023-02-22T05:53:18.445Z,88.37
2023-02-22T05:55:46.667Z,88.38
2023-02-22T05:58:15.096Z,88.32
2023-02-22T06:00:43.223Z,88.00
2023-02-22T06:03:13.656Z,88.00
2023-02-22T06:05:42.675Z,88.43
2023-02-22T06:08:10.703Z,88.40
2023-02-22T06:10:38.589Z,87.82
2023-02-22T06:13:07.117Z,88.60
2023-02-22T06:15:35.265Z,89.13
2023-02-22T06:18:03.343Z,88.61
2023-02-22T06:20:33.429Z,88.03
2023-02-22T06:23:01.304Z,88.99
2023-02-22T06:25:32.181Z,88.15
2023-02-22T06:28:00.972Z,88.49
2023-02-22T06:30:30.357Z,88.32
2023-02-22T06:32:58.243Z,89.24
2023-02-22T06:35:26.089Z,88.43
2023-02-22T06:37:55.416Z,88.67
2023-02-22T06:40:23.369Z,88.66
2023-02-22T06:42:51.245Z,88.79
2023-02-22T06:45:19.660Z,89.13
2023-02-22T06:47:48.994Z,89.04
2023-02-22T06:50:23.937Z,89.89
2023-02-22T06:52:52.637Z,88.93
2023-02-22T06:55:24.247Z,88.32
2023-02-22T06:57:52.776Z,88.75
2023-02-22T07:00:23.365Z,88.56
2023-02-22T07:02:51.911Z,89.31
2023-02-22T07:05:22.218Z,89.31
2023-02-22T07:07:52.622Z,88.47
2023-02-22T07:10:25.175Z,89.61
2023-02-22T07:12:53.455Z,89.70
2023-02-22T07:15:23.567Z,88.69
2023-02-22T07:17:51.686Z,88.48
2023-02-22T07:20:21.143Z,88.89
2023-02-22T07:22:49.398Z,89.13
2023-02-22T07:25:17.620Z,88.45
2023-02-22T07:27:47.985Z,88.84
2023-02-22T07:30:20.662Z,88.70
2023-02-22T07:32:49.097Z,88.44
2023-02-22T07:35:18.915Z,88.05
2023-02-22T07:37:48.143Z,88.06
2023-02-22T07:40:17.700Z,87.51
2023-02-22T07:42:55.470Z,87.06
2023-02-22T07:45:27.080Z,86.65
2023-02-22T07:47:55.206Z,86.57
2023-02-22T07:50:24.816Z,86.51
2023-02-22T07:52:56.727Z,86.38
2023-02-22T07:55:27.887Z,86.94
2023-02-22T07:57:59.844Z,87.35
2023-02-22T08:00:29.819Z,87.35
2023-02-22T08:02:58.829Z,86.84
2023-02-22T08:05:28.114Z,87.12
2023-02-22T08:07:56.366Z,86.69
2023-02-22T08:10:26.160Z,86.87
2023-02-22T08:12:55.840Z,86.54
2023-02-22T08:15:28.493Z,86.46
2023-02-22T08:17:56.551Z,85.84
2023-02-22T08:20:24.566Z,85.77
2023-02-22T08:22:53.113Z,86.00
2023-02-22T08:25:22.579Z,85.39
2023-02-22T08:27:50.416Z,85.28
2023-02-22T08:30:20.807Z,84.99
2023-02-22T08:32:51.157Z,84.68
2023-02-22T08:35:20.670Z,84.79
2023-02-22T08:37:50.651Z,84.38
2023-02-22T08:40:21.289Z,84.49
2023-02-22T08:42:49.308Z,84.58
2023-02-22T08:45:17.614Z,84.15
2023-02-22T08:47:45.725Z,83.93
2023-02-22T08:50:20.107Z,83.23
2023-02-22T08:52:48.026Z,82.27
2023-02-22T08:55:16.042Z,82.36
2023-02-22T08:57:43.886Z,82.96
2023-02-22T09:00:13.222Z,81.97
2023-02-22T09:02:41.598Z,82.30
2023-02-22T09:05:09.934Z,82.51
2023-02-22T09:07:42.944Z,82.28
2023-02-22T09:10:15.477Z,81.57
2023-02-22T09:12:43.745Z,81.78
2023-02-22T09:15:13.163Z,81.16
2023-02-22T09:17:41.081Z,80.71
2023-02-22T09:20:12.283Z,80.78
2023-02-22T09:22:41.741Z,80.47
2023-02-22T09:25:16.731Z,80.49
2023-02-22T09:27:45.169Z,80.08
2023-02-22T09:30:18.366Z,80.49
2023-02-22T09:32:46.466Z,80.10
2023-02-22T09:35:14.453Z,79.78
2023-02-22T09:37:45.031Z,79.88
2023-02-22T09:40:24.821Z,79.99
2023-02-22T09:43:08.341Z,79.67
2023-02-22T09:45:44.972Z,79.09
2023-02-22T09:48:21.991Z,78.06
2023-02-22T09:50:52.739Z,76.37
2023-02-22T09:53:29.989Z,76.56
2023-02-22T09:56:01.792Z,75.37
2023-02-22T09:58:33.670Z,74.91
2023-02-22T10:01:14.730Z,73.67
2023-02-22T10:03:51.266Z,73.43
2023-02-22T10:06:23.648Z,72.33
2023-02-22T10:08:56.881Z,71.85
2023-02-22T10:11:45.957Z,70.36
2023-02-22T10:14:43.792Z,68.73
2023-02-22T10:17:22.553Z,68.85
2023-02-22T10:20:01.492Z,67.92
2023-02-22T10:22:43.822Z,67.69
2023-02-22T10:25:18.176Z,66.88
2023-02-22T10:27:49.922Z,67.22
2023-02-22T10:30:25.460Z,66.45
2023-02-22T10:33:02.252Z,64.33
2023-02-22T10:35:34.019Z,64.11
2023-02-22T10:38:14.967Z,62.54
2023-02-22T10:40:47.225Z,62.66
2023-02-22T10:43:15.245Z,63.17
2023-02-22T10:45:43.552Z,63.19
2023-02-22T10:48:15.712Z,62.64
2023-02-22T10:50:45.853Z,61.62
2023-02-22T10:53:15.753Z,61.71
2023-02-22T10:56:19.177Z,61.73
2023-02-22T10:58:51.189Z,61.59
2023-02-22T11:01:26.183Z,61.68
2023-02-22T11:03:59.731Z,61.14
2023-02-22T11:06:28.368Z,61.07
2023-02-22T11:09:06.586Z,60.21
2023-02-22T11:11:35.863Z,60.68
2023-02-22T11:14:06.677Z,59.35
2023-02-22T11:16:38.290Z,59.35
2023-02-22T11:19:18.079Z,59.52
2023-02-22T11:21:46.429Z,59.25
2023-02-22T11:26:49.146Z,59.05
2023-02-22T11:29:23.209Z,59.50
2023-02-22T11:31:51.775Z,59.75
2023-02-22T11:34:33.461Z,59.69
2023-02-22T11:37:22.256Z,58.92
2023-02-22T11:40:04.854Z,59.15
2023-02-22T11:42:34.239Z,58.94
2023-02-22T11:45:13.960Z,59.17
2023-02-22T11:47:53.641Z,59.45
2023-02-22T11:50:30.896Z,58.88
2023-02-22T11:53:27.811Z,59.28
2023-02-22T11:56:16.096Z,59.00
2023-02-22T11:58:49.636Z,59.58
2023-02-22T12:01:28.146Z,59.85
2023-02-22T12:04:37.969Z,58.94
2023-02-22T12:07:27.290Z,58.91
2023-02-22T12:10:06.379Z,59.51
2023-02-22T12:12:45.035Z,60.60
2023-02-22T12:15:24.016Z,60.48
2023-02-22T12:18:00.554Z,60.79
2023-02-22T12:20:33.044Z,61.08
2023-02-22T12:23:07.175Z,60.87
2023-02-22T12:25:38.862Z,60.75
2023-02-22T12:28:24.242Z,60.56
2023-02-22T12:31:05.545Z,61.14
2023-02-22T12:33:50.434Z,60.69
2023-02-22T12:36:21.856Z,61.09
2023-02-22T12:38:55.441Z,61.50
2023-02-22T12:41:32.261Z,61.77
2023-02-22T12:44:05.709Z,62.14
2023-02-22T12:46:40.494Z,62.49
2023-02-22T12:49:17.772Z,62.85
2023-02-22T12:51:53.548Z,62.92
2023-02-22T12:54:26.365Z,62.30
2023-02-22T12:57:00.316Z,62.73
2023-02-22T12:59:34.432Z,62.77
2023-02-22T13:02:13.968Z,62.06
2023-02-22T13:04:42.047Z,62.47
2023-02-22T13:07:19.685Z,62.40
2023-02-22T13:10:00.418Z,62.51
2023-02-22T13:12:39.338Z,62.26
2023-02-22T13:15:18.994Z,62.58
2023-02-22T13:17:56.122Z,62.65
2023-02-22T13:20:29.817Z,62.81
2023-02-22T13:23:04.080Z,62.65
2023-02-22T13:25:41.958Z,62.91
2023-02-22T13:28:22.955Z,62.98
2023-02-22T13:31:02.061Z,63.16
2023-02-22T13:33:50.218Z,63.81
2023-02-22T13:36:37.993Z,62.73
2023-02-22T13:39:39.138Z,62.68
2023-02-22T13:42:26.242Z,63.06
2023-02-22T13:45:24.244Z,63.36
2023-02-22T13:48:11.267Z,63.35
2023-02-22T13:50:59.124Z,62.59
2023-02-22T13:53:32.889Z,62.53
2023-02-22T13:56:02.040Z,62.69
2023-02-22T13:58:30.413Z,63.04
2023-02-22T14:00:59.827Z,63.23
2023-02-22T14:03:40.555Z,63.13
2023-02-22T14:06:32.101Z,63.71
2023-02-22T14:09:08.585Z,62.91
2023-02-22T14:11:46.080Z,62.82
2023-02-22T14:14:19.099Z,62.81
2023-02-22T14:17:27.084Z,62.55
2023-02-22T14:20:32.484Z,62.83
2023-02-22T14:23:29.864Z,62.11
2023-02-22T14:26:11.790Z,62.17
2023-02-22T14:28:50.348Z,62.00
2023-02-22T14:31:34.935Z,62.11
2023-02-22T14:34:07.761Z,60.63
2023-02-22T14:36:42.060Z,60.75
2023-02-22T14:39:14.924Z,60.97
2023-02-22T14:41:49.957Z,60.93
2023-02-22T14:44:25.333Z,61.42
2023-02-22T14:46:57.669Z,61.28
2023-02-22T14:49:31.551Z,61.77
2023-02-22T14:52:05.757Z,61.91
2023-02-22T14:54:41.809Z,61.14
2023-02-22T14:57:21.676Z,61.04
2023-02-22T15:00:08.137Z,60.84
2023-02-22T15:02:41.486Z,61.00
2023-02-22T15:05:14.764Z,60.88
2023-02-22T15:07:52.531Z,61.22
2023-02-22T15:10:26.006Z,60.98
2023-02-22T15:13:10.631Z,61.07
2023-02-22T15:15:40.876Z,61.67
2023-02-22T15:18:22.012Z,61.11
2023-02-22T15:20:56.176Z,61.60
2023-02-22T15:23:30.197Z,61.76
2023-02-22T15:25:59.249Z,61.68
2023-02-22T15:28:31.373Z,61.47
2023-02-22T15:31:23.490Z,61.39
2023-02-22T15:33:53.128Z,60.63
2023-02-22T15:36:22.792Z,60.49
2023-02-22T15:38:52.670Z,61.56
2023-02-22T15:41:29.569Z,61.60
2023-02-22T15:44:22.773Z,61.16
2023-02-22T15:46:54.461Z,61.35
2023-02-22T15:49:24.444Z,61.75
2023-02-22T15:52:05.980Z,61.31
2023-02-22T15:54:46.568Z,61.50
2023-02-22T15:57:17.154Z,61.30
2023-02-22T15:59:49.996Z,61.23
2023-02-22T16:02:32.651Z,61.84
2023-02-22T16:05:03.916Z,61.80
2023-02-22T16:07:32.009Z,61.97
2023-02-22T16:10:08.073Z,61.82
2023-02-22T16:12:36.716Z,62.21
2023-02-22T16:15:16.404Z,62.56
2023-02-22T16:17:56.062Z,63.01
2023-02-22T16:20:35.389Z,62.62
2023-02-22T16:23:23.398Z,62.75
2023-02-22T16:26:06.848Z,62.67
2023-02-22T16:28:35.999Z,62.69
2023-02-22T16:31:05.567Z,63.28
2023-02-22T16:33:34.445Z,63.36
2023-02-22T16:36:08.122Z,62.96
2023-02-22T16:38:38.458Z,63.34
2023-02-22T16:41:07.759Z,63.48
2023-02-22T16:43:37.343Z,63.77
2023-02-22T16:46:07.845Z,63.33
2023-02-22T16:48:38.217Z,63.81
2023-02-22T16:51:16.749Z,64.31
2023-02-22T16:53:44.890Z,64.28
2023-02-22T16:56:16.731Z,64.39
2023-02-22T16:58:46.452Z,64.88
2023-02-22T17:01:15.680Z,65.02
2023-02-22T17:03:43.636Z,64.92
2023-02-22T17:06:11.508Z,64.96
2023-02-22T17:08:39.808Z,65.03
2023-02-22T17:11:08.914Z,65.28
2023-02-22T17:13:36.962Z,65.55
2023-02-22T17:16:05.620Z,65.45
2023-02-22T17:18:35.701Z,65.30
2023-02-22T17:21:03.999Z,65.75
2023-02-22T17:23:31.823Z,66.60
2023-02-22T17:26:02.165Z,67.53
2023-02-22T17:28:31.399Z,67.34
2023-02-22T17:31:01.806Z,67.83
2023-02-22T17:33:32.877Z,68.55
2023-02-22T17:36:04.078Z,68.34
2023-02-22T17:38:34.609Z,69.18
2023-02-22T17:41:03.437Z,69.34
2023-02-22T17:43:31.305Z,69.41
2023-02-22T17:46:00.140Z,70.06
2023-02-22T17:48:28.104Z,70.22
2023-02-22T17:50:56.279Z,70.57
2023-02-22T17:53:26.632Z,70.46
2023-02-22T17:55:55.719Z,71.31
2023-02-22T17:58:25.772Z,71.51
2023-02-22T18:00:59.289Z,71.52
2023-02-22T18:03:29.067Z,71.15
2023-02-22T18:05:59.047Z,70.15
2023-02-22T18:08:31.078Z,70.92
2023-02-22T18:11:02.059Z,72.18
2023-02-22T18:13:31.237Z,71.22
2023-02-22T18:16:00.646Z,71.41
2023-02-22T18:18:29.043Z,71.55
2023-02-22T18:20:59.719Z,71.02
2023-02-22T18:23:31.173Z,70.79
2023-02-22T18:26:10.681Z,70.73
2023-02-22T18:28:39.634Z,71.47
2023-02-22T18:31:08.915Z,71.34
2023-02-22T18:33:36.879Z,71.49
2023-02-22T18:36:05.305Z,71.50
2023-02-22T18:38:34.582Z,71.62
2023-02-22T18:41:04.674Z,71.92
2023-02-22T18:43:34.211Z,71.54
2023-02-22T18:46:10.355Z,71.37
2023-02-22T18:48:38.930Z,71.13
2023-02-22T18:51:09.774Z,71.13
2023-02-22T18:53:40.885Z,70.77
2023-02-22T18:56:11.119Z,70.86
2023-02-22T18:58:39.644Z,71.29
2023-02-22T19:01:08.084Z,71.88
2023-02-22T19:03:38.138Z,71.93
2023-02-22T19:06:08.949Z,71.78
2023-02-22T19:08:39.510Z,72.30
2023-02-22T19:11:11.398Z,72.72
2023-02-22T19:13:39.525Z,72.62
2023-02-22T19:16:09.140Z,72.44
2023-02-22T19:18:38.204Z,73.33
2023-02-22T19:21:08.970Z,73.53
2023-02-22T19:23:38.119Z,74.31
2023-02-22T19:26:09.416Z,73.83
2023-02-22T19:28:38.671Z,74.49
2023-02-22T19:31:18.309Z,73.19
2023-02-22T19:33:51.162Z,72.54
2023-02-22T19:36:20.179Z,73.47
2023-02-22T19:38:48.289Z,72.70
2023-02-22T19:41:18.362Z,74.60
2023-02-22T19:43:49.479Z,74.07
2023-02-22T19:46:17.943Z,74.37
2023-02-22T19:48:46.532Z,74.27
2023-02-22T19:51:17.308Z,74.48
2023-02-22T19:53:46.168Z,73.78
2023-02-22T19:56:16.738Z,73.70
2023-02-22T19:58:48.373Z,74.01
2023-02-22T20:01:22.808Z,75.51
2023-02-22T20:03:54.122Z,75.16
2023-02-22T20:06:26.455Z,75.60
2023-02-22T20:08:55.008Z,75.77
2023-02-22T20:11:23.882Z,75.56
2023-02-22T20:13:53.369Z,74.76
2023-02-22T20:16:21.270Z,74.96
2023-02-22T20:18:50.079Z,74.88
2023-02-22T20:21:22.238Z,74.87
2023-02-22T20:23:50.094Z,74.79
2023-02-22T20:26:20.023Z,74.89
2023-02-22T20:28:47.907Z,74.99
2023-02-22T20:31:18.167Z,74.60
2023-02-22T20:33:48.126Z,74.60
2023-02-22T20:36:18.273Z,74.55
2023-02-22T20:38:46.999Z,75.86
2023-02-22T20:41:17.360Z,76.46
2023-02-22T20:43:45.323Z,76.30
2023-02-22T20:46:13.208Z,75.81
2023-02-22T20:48:42.551Z,77.45
2023-02-22T20:51:11.986Z,75.88
2023-02-22T20:53:41.882Z,76.42
2023-02-22T20:56:13.278Z,76.85
2023-02-22T20:58:41.139Z,76.51
2023-02-22T21:01:12.106Z,77.67
2023-02-22T21:03:40.745Z,77.36
2023-02-22T21:06:11.785Z,76.73
2023-02-22T21:08:40.264Z,77.62
2023-02-22T21:11:12.054Z,78.07
2023-02-22T21:13:40.582Z,77.84
2023-02-22T21:16:10.252Z,78.06
2023-02-22T21:18:38.508Z,78.36
2023-02-22T21:21:10.212Z,78.74
2023-02-22T21:23:40.531Z,78.81
2023-02-22T21:26:10.863Z,78.05
2023-02-22T21:28:53.874Z,78.16
2023-02-22T21:31:24.103Z,79.50
2023-02-22T21:33:54.195Z,79.20
2023-02-22T21:36:25.375Z,79.39
2023-02-22T21:38:56.945Z,78.91
2023-02-22T21:41:27.698Z,78.99
2023-02-22T21:43:56.962Z,79.82
2023-02-22T21:46:29.655Z,79.57
2023-02-22T21:48:59.152Z,79.54
2023-02-22T21:51:31.889Z,79.43
2023-02-22T21:54:03.240Z,79.65
2023-02-22T21:56:32.986Z,79.94
2023-02-22T21:59:03.012Z,80.45
2023-02-22T22:01:33.141Z,80.70
2023-02-22T22:04:02.092Z,80.05
2023-02-22T22:06:32.016Z,79.53
2023-02-22T22:09:01.522Z,80.65
2023-02-22T22:11:30.770Z,80.80
2023-02-22T22:13:59.753Z,80.51
2023-02-22T22:16:29.704Z,80.97
2023-02-22T22:18:58.268Z,80.60
2023-02-22T22:21:26.287Z,80.54
2023-02-22T22:23:56.120Z,80.95
2023-02-22T22:26:27.325Z,80.96
2023-02-22T22:28:57.522Z,81.01
2023-02-22T22:31:27.119Z,81.79
2023-02-22T22:33:56.166Z,82.14
2023-02-22T22:36:26.084Z,81.68
2023-02-22T22:38:57.293Z,81.69
2023-02-22T22:41:28.873Z,82.07
2023-02-22T22:43:57.122Z,81.26
2023-02-22T22:46:25.048Z,80.75
2023-02-22T22:48:52.951Z,80.82
2023-02-22T22:51:22.021Z,81.11
2023-02-22T22:53:51.433Z,81.57
2023-02-22T22:56:21.577Z,81.58
2023-02-22T22:58:52.923Z,80.76
2023-02-22T23:01:27.092Z,81.06
2023-02-22T23:03:59.277Z,81.77
2023-02-22T23:06:30.967Z,81.86
2023-02-22T23:09:00.997Z,81.79
2023-02-22T23:11:33.582Z,81.99
2023-02-22T23:14:05.565Z,82.30
2023-02-22T23:16:33.751Z,81.32
2023-02-22T23:19:01.707Z,82.32
2023-02-22T23:21:29.570Z,81.88
2023-02-22T23:23:58.490Z,83.14
2023-02-22T23:26:27.533Z,83.41
2023-02-22T23:28:57.419Z,84.13
2023-02-22T23:31:28.607Z,84.29
2023-02-22T23:33:58.790Z,84.93
2023-02-22T23:36:28.143Z,85.26
2023-02-22T23:38:56.059Z,86.23
2023-02-22T23:41:25.178Z,86.68
2023-02-22T23:43:53.850Z,86.20
2023-02-22T23:46:21.893Z,85.84
2023-02-22T23:48:54.543Z,86.90
2023-02-22T23:51:25.681Z,86.34
2023-02-22T23:53:55.827Z,86.65
2023-02-22T23:56:26.498Z,86.86
2023-02-22T23:58:57.331Z,86.57
